SKSP

Details ICAO SKSP (ADZ)
Name Gustavo Rojas Pinilla Intl
Region Colombia
Timezone Unknown
Plans Departing 423
Arriving 567
Stats Elevation 19 ft / 6 m (AMSL)
Location 12.583700° -81.711100°
Runways 1
Magnetic Variation 4.168° W
Sunrise 2021-06-15 11:02:53 UTC / 2021-06-15 11:02:53 Local
Sunset 2021-06-15 23:54:33 UTC / 2021-06-15 23:54:33 Local
Advertisement - Login to hide

Runways

ID Width Length Bearing (true/mag) Surface Threshold Overrun Markings Lighting
06 148 ft / 45 m 7,799 ft / 2,377 m 59.54° / 63.71° ASPHALT 0 ft / 0 m 394 ft / 120 m PREC-APP EDGE THRESHOLD REIL-OMNI
24 148 ft / 45 m 7,799 ft / 2,377 m 239.55° / 243.71° ASPHALT 0 ft / 0 m 194 ft / 59 m PREC-APP EDGE THRESHOLD REIL-OMNI

Map

Weather


0- 5 10 15 20 25 30 35+ Temperature / °C

Clouds and Precipitation
Forecast for 2021-06-15 18:00 UTC. Updated an hour ago

Ground ~20,000 ft ~40,000 ft Winds

METAR

SKSP 151600Z 10008KT 080V140 9999 FEW016 BKN200 30/25 Q1013 RMK A2994

TAF

TAF SKSP 151030Z 1512/1612 09010KT 9999 SCT020TCU TX31/1518Z TN26/1610Z

Frequencies

Recorded 127.80 MHz AWOS
Recorded 113.30 MHz ATIS
Tower 118.10 MHz San Andres Tower
Warning: Do not use this data for real-world aviation or navigation. No guarantee of current accuracy is given.